sensor_id;sensor_type;location;lat;lon;timestamp;temperature;humidity
6206;DHT22;3136;48.788;9.772;2023-07-31T00:00:11;12.80;1.00
6206;DHT22;3136;48.788;9.772;2023-07-31T00:02:37;12.90;1.00
6206;DHT22;3136;48.788;9.772;2023-07-31T00:05:03;12.80;1.00
6206;DHT22;3136;48.788;9.772;2023-07-31T00:07:29;12.80;1.00
6206;DHT22;3136;48.788;9.772;2023-07-31T00:09:54;12.80;1.00
6206;DHT22;3136;48.788;9.772;2023-07-31T00:12:22;12.80;1.00
6206;DHT22;3136;48.788;9.772;2023-07-31T00:14:48;12.80;1.00
6206;DHT22;3136;48.788;9.772;2023-07-31T00:17:13;12.90;1.00
6206;DHT22;3136;48.788;9.772;2023-07-31T00:19:39;12.80;1.00
6206;DHT22;3136;48.788;9.772;2023-07-31T00:22:05;12.70;1.00
6206;DHT22;3136;48.788;9.772;2023-07-31T00:24:30;12.70;1.00
6206;DHT22;3136;48.788;9.772;2023-07-31T00:26:56;12.80;1.00
6206;DHT22;3136;48.788;9.772;2023-07-31T00:29:21;12.70;1.00
6206;DHT22;3136;48.788;9.772;2023-07-31T00:31:47;12.70;1.00
6206;DHT22;3136;48.788;9.772;2023-07-31T00:34:12;12.60;1.00
6206;DHT22;3136;48.788;9.772;2023-07-31T00:36:38;12.60;1.00
6206;DHT22;3136;48.788;9.772;2023-07-31T00:39:04;12.50;1.00
6206;DHT22;3136;48.788;9.772;2023-07-31T00:41:30;12.50;1.00
6206;DHT22;3136;48.788;9.772;2023-07-31T00:43:55;12.50;1.00
6206;DHT22;3136;48.788;9.772;2023-07-31T00:46:21;12.50;1.00
6206;DHT22;3136;48.788;9.772;2023-07-31T00:48:47;12.40;1.00
6206;DHT22;3136;48.788;9.772;2023-07-31T00:51:12;12.40;1.00
6206;DHT22;3136;48.788;9.772;2023-07-31T00:53:38;12.30;1.00
6206;DHT22;3136;48.788;9.772;2023-07-31T00:56:05;12.40;1.00
6206;DHT22;3136;48.788;9.772;2023-07-31T00:58:31;12.30;1.00
6206;DHT22;3136;48.788;9.772;2023-07-31T01:00:56;12.30;1.00
6206;DHT22;3136;48.788;9.772;2023-07-31T01:03:22;12.30;1.00
6206;DHT22;3136;48.788;9.772;2023-07-31T01:06:14;12.20;1.00
6206;DHT22;3136;48.788;9.772;2023-07-31T01:08:48;12.20;1.00
6206;DHT22;3136;48.788;9.772;2023-07-31T01:11:28;12.20;1.00
6206;DHT22;3136;48.788;9.772;2023-07-31T01:13:57;12.20;1.00
6206;DHT22;3136;48.788;9.772;2023-07-31T01:16:24;12.10;1.00
6206;DHT22;3136;48.788;9.772;2023-07-31T01:18:50;12.10;1.00
6206;DHT22;3136;48.788;9.772;2023-07-31T01:24:23;12.10;1.00
6206;DHT22;3136;48.788;9.772;2023-07-31T01:27:06;12.00;1.00
6206;DHT22;3136;48.788;9.772;2023-07-31T01:29:42;12.10;1.00
6206;DHT22;3136;48.788;9.772;2023-07-31T01:32:09;11.90;1.00
6206;DHT22;3136;48.788;9.772;2023-07-31T01:34:36;11.90;1.00
6206;DHT22;3136;48.788;9.772;2023-07-31T01:37:02;11.90;1.00
6206;DHT22;3136;48.788;9.772;2023-07-31T01:39:28;11.90;1.00
6206;DHT22;3136;48.788;9.772;2023-07-31T01:41:54;11.90;1.00
6206;DHT22;3136;48.788;9.772;2023-07-31T01:44:19;11.80;1.00
6206;DHT22;3136;48.788;9.772;2023-07-31T01:46:45;11.80;1.00
6206;DHT22;3136;48.788;9.772;2023-07-31T01:49:10;11.80;1.00
6206;DHT22;3136;48.788;9.772;2023-07-31T01:51:36;11.70;1.00
6206;DHT22;3136;48.788;9.772;2023-07-31T01:54:02;11.70;1.00
6206;DHT22;3136;48.788;9.772;2023-07-31T01:56:28;11.70;1.00
6206;DHT22;3136;48.788;9.772;2023-07-31T01:58:53;11.70;1.00
6206;DHT22;3136;48.788;9.772;2023-07-31T02:01:19;11.70;1.00
6206;DHT22;3136;48.788;9.772;2023-07-31T02:03:45;11.60;1.00
6206;DHT22;3136;48.788;9.772;2023-07-31T02:06:10;11.60;1.00
6206;DHT22;3136;48.788;9.772;2023-07-31T02:08:36;11.60;1.00
6206;DHT22;3136;48.788;9.772;2023-07-31T02:11:01;11.60;1.00
6206;DHT22;3136;48.788;9.772;2023-07-31T02:13:27;11.70;1.00
6206;DHT22;3136;48.788;9.772;2023-07-31T02:15:53;11.70;1.00
6206;DHT22;3136;48.788;9.772;2023-07-31T02:18:19;11.60;1.00
6206;DHT22;3136;48.788;9.772;2023-07-31T02:20:51;11.60;1.00
6206;DHT22;3136;48.788;9.772;2023-07-31T02:23:20;11.60;1.00
6206;DHT22;3136;48.788;9.772;2023-07-31T02:25:46;11.60;1.00
6206;DHT22;3136;48.788;9.772;2023-07-31T02:28:11;11.60;1.00
6206;DHT22;3136;48.788;9.772;2023-07-31T02:30:37;11.60;1.00
6206;DHT22;3136;48.788;9.772;2023-07-31T02:33:04;11.60;1.00
6206;DHT22;3136;48.788;9.772;2023-07-31T02:35:30;11.60;1.00
6206;DHT22;3136;48.788;9.772;2023-07-31T02:37:55;11.50;1.00
6206;DHT22;3136;48.788;9.772;2023-07-31T02:40:21;11.50;1.00
6206;DHT22;3136;48.788;9.772;2023-07-31T02:42:47;11.50;1.00
6206;DHT22;3136;48.788;9.772;2023-07-31T02:45:12;11.40;1.00
6206;DHT22;3136;48.788;9.772;2023-07-31T02:47:38;11.40;1.00
6206;DHT22;3136;48.788;9.772;2023-07-31T02:50:04;11.50;1.00
6206;DHT22;3136;48.788;9.772;2023-07-31T02:52:30;11.40;1.00
6206;DHT22;3136;48.788;9.772;2023-07-31T02:54:56;11.40;1.00
6206;DHT22;3136;48.788;9.772;2023-07-31T02:59:49;11.40;1.00
6206;DHT22;3136;48.788;9.772;2023-07-31T03:02:15;11.30;1.00
6206;DHT22;3136;48.788;9.772;2023-07-31T03:04:40;11.30;1.00
6206;DHT22;3136;48.788;9.772;2023-07-31T03:07:06;11.30;1.00
6206;DHT22;3136;48.788;9.772;2023-07-31T03:09:32;11.30;1.00
6206;DHT22;3136;48.788;9.772;2023-07-31T03:11:57;11.30;1.00
6206;DHT22;3136;48.788;9.772;2023-07-31T03:14:23;11.30;1.00
6206;DHT22;3136;48.788;9.772;2023-07-31T03:16:49;11.30;1.00
6206;DHT22;3136;48.788;9.772;2023-07-31T03:19:14;11.30;1.00
6206;DHT22;3136;48.788;9.772;2023-07-31T03:21:40;11.30;1.00
6206;DHT22;3136;48.788;9.772;2023-07-31T03:24:06;11.30;1.00
6206;DHT22;3136;48.788;9.772;2023-07-31T03:26:32;11.30;1.00
6206;DHT22;3136;48.788;9.772;2023-07-31T03:28:57;11.20;1.00
6206;DHT22;3136;48.788;9.772;2023-07-31T03:31:23;11.20;1.00
6206;DHT22;3136;48.788;9.772;2023-07-31T03:33:48;11.20;1.00
6206;DHT22;3136;48.788;9.772;2023-07-31T03:36:14;11.10;1.00
6206;DHT22;3136;48.788;9.772;2023-07-31T03:38:39;11.10;1.00
6206;DHT22;3136;48.788;9.772;2023-07-31T03:41:05;11.10;1.00
6206;DHT22;3136;48.788;9.772;2023-07-31T03:43:32;11.10;1.00
6206;DHT22;3136;48.788;9.772;2023-07-31T03:45:59;11.30;1.00
6206;DHT22;3136;48.788;9.772;2023-07-31T03:48:25;11.00;1.00
6206;DHT22;3136;48.788;9.772;2023-07-31T03:50:51;11.10;1.00
6206;DHT22;3136;48.788;9.772;2023-07-31T03:53:17;11.10;1.00
6206;DHT22;3136;48.788;9.772;2023-07-31T03:55:42;11.10;1.00
6206;DHT22;3136;48.788;9.772;2023-07-31T03:58:08;11.10;1.00
6206;DHT22;3136;48.788;9.772;2023-07-31T04:00:33;11.10;1.00
6206;DHT22;3136;48.788;9.772;2023-07-31T04:02:59;11.10;1.00
6206;DHT22;3136;48.788;9.772;2023-07-31T04:05:24;11.10;1.00
6206;DHT22;3136;48.788;9.772;2023-07-31T04:07:50;11.10;1.00
6206;DHT22;3136;48.788;9.772;2023-07-31T04:10:15;11.20;1.00
6206;DHT22;3136;48.788;9.772;2023-07-31T04:12:41;11.20;1.00
6206;DHT22;3136;48.788;9.772;2023-07-31T04:15:07;11.50;1.00
6206;DHT22;3136;48.788;9.772;2023-07-31T04:17:32;11.30;1.00
6206;DHT22;3136;48.788;9.772;2023-07-31T04:19:58;11.30;1.00
6206;DHT22;3136;48.788;9.772;2023-07-31T04:22:23;11.30;1.00
6206;DHT22;3136;48.788;9.772;2023-07-31T04:24:49;11.40;1.00
6206;DHT22;3136;48.788;9.772;2023-07-31T04:27:14;11.50;1.00
6206;DHT22;3136;48.788;9.772;2023-07-31T04:29:40;11.60;1.00
6206;DHT22;3136;48.788;9.772;2023-07-31T04:32:08;11.50;1.00
6206;DHT22;3136;48.788;9.772;2023-07-31T04:34:33;11.60;1.00
6206;DHT22;3136;48.788;9.772;2023-07-31T04:36:59;11.50;1.00
6206;DHT22;3136;48.788;9.772;2023-07-31T04:39:24;11.50;1.00
6206;DHT22;3136;48.788;9.772;2023-07-31T04:41:50;11.50;1.00
6206;DHT22;3136;48.788;9.772;2023-07-31T04:44:16;11.60;1.00
6206;DHT22;3136;48.788;9.772;2023-07-31T04:46:41;11.70;1.00
6206;DHT22;3136;48.788;9.772;2023-07-31T04:49:07;11.70;1.00
6206;DHT22;3136;48.788;9.772;2023-07-31T04:51:32;11.80;1.00
6206;DHT22;3136;48.788;9.772;2023-07-31T04:53:58;11.80;1.00
6206;DHT22;3136;48.788;9.772;2023-07-31T04:56:23;11.90;1.00
6206;DHT22;3136;48.788;9.772;2023-07-31T04:58:49;11.90;1.00
6206;DHT22;3136;48.788;9.772;2023-07-31T05:01:14;12.00;1.00
6206;DHT22;3136;48.788;9.772;2023-07-31T05:03:40;12.10;1.00
6206;DHT22;3136;48.788;9.772;2023-07-31T05:06:05;12.10;1.00
6206;DHT22;3136;48.788;9.772;2023-07-31T05:08:31;12.20;1.00
6206;DHT22;3136;48.788;9.772;2023-07-31T05:10:57;12.20;1.00
6206;DHT22;3136;48.788;9.772;2023-07-31T05:13:22;12.30;1.00
6206;DHT22;3136;48.788;9.772;2023-07-31T05:15:48;12.30;1.00
6206;DHT22;3136;48.788;9.772;2023-07-31T05:18:15;12.40;1.00
6206;DHT22;3136;48.788;9.772;2023-07-31T05:20:40;12.40;1.00
6206;DHT22;3136;48.788;9.772;2023-07-31T05:23:06;12.50;1.00
6206;DHT22;3136;48.788;9.772;2023-07-31T05:25:32;12.60;1.00
6206;DHT22;3136;48.788;9.772;2023-07-31T05:27:58;12.70;1.00
6206;DHT22;3136;48.788;9.772;2023-07-31T05:30:23;12.70;1.00
6206;DHT22;3136;48.788;9.772;2023-07-31T05:32:49;12.80;1.00
6206;DHT22;3136;48.788;9.772;2023-07-31T05:35:15;12.90;1.00
6206;DHT22;3136;48.788;9.772;2023-07-31T05:37:40;12.80;1.00
6206;DHT22;3136;48.788;9.772;2023-07-31T05:40:06;12.90;1.00
6206;DHT22;3136;48.788;9.772;2023-07-31T05:42:32;13.00;1.00
6206;DHT22;3136;48.788;9.772;2023-07-31T05:44:57;13.10;1.00
6206;DHT22;3136;48.788;9.772;2023-07-31T05:47:23;13.20;1.00
6206;DHT22;3136;48.788;9.772;2023-07-31T05:49:49;13.20;1.00
6206;DHT22;3136;48.788;9.772;2023-07-31T05:52:18;13.30;1.00
6206;DHT22;3136;48.788;9.772;2023-07-31T05:54:43;13.40;1.00
6206;DHT22;3136;48.788;9.772;2023-07-31T05:57:09;13.60;1.00
6206;DHT22;3136;48.788;9.772;2023-07-31T05:59:34;13.60;1.00
6206;DHT22;3136;48.788;9.772;2023-07-31T06:02:00;13.70;99.90
6206;DHT22;3136;48.788;9.772;2023-07-31T06:04:25;13.70;99.90
6206;DHT22;3136;48.788;9.772;2023-07-31T06:06:52;13.80;99.90
6206;DHT22;3136;48.788;9.772;2023-07-31T06:09:17;13.90;99.90
6206;DHT22;3136;48.788;9.772;2023-07-31T06:11:43;13.90;99.90
6206;DHT22;3136;48.788;9.772;2023-07-31T06:14:08;13.90;99.90
6206;DHT22;3136;48.788;9.772;2023-07-31T06:16:34;14.10;99.90
6206;DHT22;3136;48.788;9.772;2023-07-31T06:19:01;14.10;99.90
6206;DHT22;3136;48.788;9.772;2023-07-31T06:21:26;14.20;99.90
6206;DHT22;3136;48.788;9.772;2023-07-31T06:23:52;15.10;99.90
6206;DHT22;3136;48.788;9.772;2023-07-31T06:26:17;14.50;99.90
6206;DHT22;3136;48.788;9.772;2023-07-31T06:28:43;14.60;1.00
6206;DHT22;3136;48.788;9.772;2023-07-31T06:31:09;14.70;1.00
6206;DHT22;3136;48.788;9.772;2023-07-31T06:33:35;14.80;99.90
6206;DHT22;3136;48.788;9.772;2023-07-31T06:36:00;14.90;99.90
6206;DHT22;3136;48.788;9.772;2023-07-31T06:38:26;15.10;1.00
6206;DHT22;3136;48.788;9.772;2023-07-31T06:40:53;15.20;1.00
6206;DHT22;3136;48.788;9.772;2023-07-31T06:43:18;15.50;1.00
6206;DHT22;3136;48.788;9.772;2023-07-31T06:45:44;15.60;99.90
6206;DHT22;3136;48.788;9.772;2023-07-31T06:48:10;15.80;1.00
6206;DHT22;3136;48.788;9.772;2023-07-31T06:50:35;16.10;99.90
6206;DHT22;3136;48.788;9.772;2023-07-31T06:53:02;16.30;99.90
6206;DHT22;3136;48.788;9.772;2023-07-31T06:55:28;16.50;1.00
6206;DHT22;3136;48.788;9.772;2023-07-31T06:57:55;16.60;1.00
6206;DHT22;3136;48.788;9.772;2023-07-31T07:00:22;16.90;1.00
6206;DHT22;3136;48.788;9.772;2023-07-31T07:02:48;17.00;1.00
6206;DHT22;3136;48.788;9.772;2023-07-31T07:05:14;17.10;1.00
6206;DHT22;3136;48.788;9.772;2023-07-31T07:07:40;17.00;99.90
6206;DHT22;3136;48.788;9.772;2023-07-31T07:10:06;17.00;1.00
6206;DHT22;3136;48.788;9.772;2023-07-31T07:12:33;17.00;99.90
6206;DHT22;3136;48.788;9.772;2023-07-31T07:14:59;17.00;99.90
6206;DHT22;3136;48.788;9.772;2023-07-31T07:17:28;17.00;99.90
6206;DHT22;3136;48.788;9.772;2023-07-31T07:19:56;16.90;1.00
6206;DHT22;3136;48.788;9.772;2023-07-31T07:22:22;16.90;99.90
6206;DHT22;3136;48.788;9.772;2023-07-31T07:24:48;16.90;96.30
6206;DHT22;3136;48.788;9.772;2023-07-31T07:27:14;16.90;99.90
6206;DHT22;3136;48.788;9.772;2023-07-31T07:29:40;17.00;99.90
6206;DHT22;3136;48.788;9.772;2023-07-31T07:32:06;17.10;1.00
6206;DHT22;3136;48.788;9.772;2023-07-31T07:34:31;16.10;1.00
6206;DHT22;3136;48.788;9.772;2023-07-31T07:36:57;17.40;1.00
6206;DHT22;3136;48.788;9.772;2023-07-31T07:39:22;17.60;55.50
6206;DHT22;3136;48.788;9.772;2023-07-31T07:41:48;17.70;1.00
6206;DHT22;3136;48.788;9.772;2023-07-31T07:44:14;17.70;1.00
6206;DHT22;3136;48.788;9.772;2023-07-31T07:46:40;17.80;1.00
6206;DHT22;3136;48.788;9.772;2023-07-31T07:49:06;18.00;1.00
6206;DHT22;3136;48.788;9.772;2023-07-31T07:51:34;18.20;61.40
6206;DHT22;3136;48.788;9.772;2023-07-31T07:54:00;18.90;1.00
6206;DHT22;3136;48.788;9.772;2023-07-31T07:56:26;18.70;1.00
6206;DHT22;3136;48.788;9.772;2023-07-31T07:58:53;18.80;99.90
6206;DHT22;3136;48.788;9.772;2023-07-31T08:01:19;19.00;99.90
6206;DHT22;3136;48.788;9.772;2023-07-31T08:03:44;19.00;1.00
6206;DHT22;3136;48.788;9.772;2023-07-31T08:06:10;18.90;99.90
6206;DHT22;3136;48.788;9.772;2023-07-31T08:08:36;18.80;99.90
6206;DHT22;3136;48.788;9.772;2023-07-31T08:11:02;18.80;99.90
6206;DHT22;3136;48.788;9.772;2023-07-31T08:13:28;18.80;99.90
6206;DHT22;3136;48.788;9.772;2023-07-31T08:15:54;18.90;99.90
6206;DHT22;3136;48.788;9.772;2023-07-31T08:18:19;19.00;1.00
6206;DHT22;3136;48.788;9.772;2023-07-31T08:20:45;19.20;1.00
6206;DHT22;3136;48.788;9.772;2023-07-31T08:23:11;19.30;1.00
6206;DHT22;3136;48.788;9.772;2023-07-31T08:25:37;19.60;1.00
6206;DHT22;3136;48.788;9.772;2023-07-31T08:28:03;19.80;1.00
6206;DHT22;3136;48.788;9.772;2023-07-31T08:30:29;19.90;1.00
6206;DHT22;3136;48.788;9.772;2023-07-31T08:32:55;20.10;99.90
6206;DHT22;3136;48.788;9.772;2023-07-31T08:35:21;20.10;1.00
6206;DHT22;3136;48.788;9.772;2023-07-31T08:37:47;20.30;99.90
6206;DHT22;3136;48.788;9.772;2023-07-31T08:40:12;20.40;99.90
6206;DHT22;3136;48.788;9.772;2023-07-31T08:42:46;20.60;1.00
6206;DHT22;3136;48.788;9.772;2023-07-31T08:45:16;20.70;99.90
6206;DHT22;3136;48.788;9.772;2023-07-31T08:47:44;20.80;99.90
6206;DHT22;3136;48.788;9.772;2023-07-31T08:50:12;21.00;99.90
6206;DHT22;3136;48.788;9.772;2023-07-31T08:52:38;21.10;99.90
6206;DHT22;3136;48.788;9.772;2023-07-31T08:55:05;21.00;99.90
6206;DHT22;3136;48.788;9.772;2023-07-31T08:57:31;21.10;99.90
6206;DHT22;3136;48.788;9.772;2023-07-31T08:59:59;21.00;99.90
6206;DHT22;3136;48.788;9.772;2023-07-31T09:02:28;21.20;99.90
6206;DHT22;3136;48.788;9.772;2023-07-31T09:04:54;21.20;99.90
6206;DHT22;3136;48.788;9.772;2023-07-31T09:07:21;21.10;99.90
6206;DHT22;3136;48.788;9.772;2023-07-31T09:09:47;21.20;99.90
6206;DHT22;3136;48.788;9.772;2023-07-31T09:12:12;21.40;99.90
6206;DHT22;3136;48.788;9.772;2023-07-31T09:14:38;21.40;99.90
6206;DHT22;3136;48.788;9.772;2023-07-31T09:17:04;21.40;99.90
6206;DHT22;3136;48.788;9.772;2023-07-31T09:19:33;21.30;99.90
6206;DHT22;3136;48.788;9.772;2023-07-31T09:22:00;21.40;99.90
6206;DHT22;3136;48.788;9.772;2023-07-31T09:24:27;21.50;99.90
6206;DHT22;3136;48.788;9.772;2023-07-31T09:26:54;21.50;99.90
6206;DHT22;3136;48.788;9.772;2023-07-31T09:29:21;21.70;99.90
6206;DHT22;3136;48.788;9.772;2023-07-31T09:31:47;21.80;99.90
6206;DHT22;3136;48.788;9.772;2023-07-31T09:34:13;21.90;99.90
6206;DHT22;3136;48.788;9.772;2023-07-31T09:36:50;22.00;99.90
6206;DHT22;3136;48.788;9.772;2023-07-31T09:39:18;22.00;99.90
6206;DHT22;3136;48.788;9.772;2023-07-31T09:41:53;22.10;99.90
6206;DHT22;3136;48.788;9.772;2023-07-31T09:44:19;22.00;99.90
6206;DHT22;3136;48.788;9.772;2023-07-31T09:46:45;22.00;99.90
6206;DHT22;3136;48.788;9.772;2023-07-31T09:49:11;22.20;99.90
6206;DHT22;3136;48.788;9.772;2023-07-31T09:51:38;22.10;99.90
6206;DHT22;3136;48.788;9.772;2023-07-31T09:56:45;22.30;99.90
6206;DHT22;3136;48.788;9.772;2023-07-31T09:59:13;22.30;99.90
6206;DHT22;3136;48.788;9.772;2023-07-31T10:01:40;22.40;99.90
6206;DHT22;3136;48.788;9.772;2023-07-31T10:04:08;22.40;99.90
6206;DHT22;3136;48.788;9.772;2023-07-31T10:06:35;22.30;99.90
6206;DHT22;3136;48.788;9.772;2023-07-31T10:09:03;22.60;99.90
6206;DHT22;3136;48.788;9.772;2023-07-31T10:11:37;22.60;99.90
6206;DHT22;3136;48.788;9.772;2023-07-31T10:14:04;22.60;99.90
6206;DHT22;3136;48.788;9.772;2023-07-31T10:16:31;22.50;99.90
6206;DHT22;3136;48.788;9.772;2023-07-31T10:18:57;22.60;99.90
6206;DHT22;3136;48.788;9.772;2023-07-31T10:21:24;22.70;99.90
6206;DHT22;3136;48.788;9.772;2023-07-31T10:23:50;22.60;99.90
6206;DHT22;3136;48.788;9.772;2023-07-31T10:26:19;22.90;99.90
6206;DHT22;3136;48.788;9.772;2023-07-31T10:28:46;23.20;99.90
6206;DHT22;3136;48.788;9.772;2023-07-31T10:31:13;23.30;99.90
6206;DHT22;3136;48.788;9.772;2023-07-31T10:33:40;23.30;99.90
6206;DHT22;3136;48.788;9.772;2023-07-31T10:36:18;23.20;99.90
6206;DHT22;3136;48.788;9.772;2023-07-31T10:38:45;23.20;99.90
6206;DHT22;3136;48.788;9.772;2023-07-31T10:41:11;23.20;99.90
6206;DHT22;3136;48.788;9.772;2023-07-31T10:43:40;23.10;99.90
6206;DHT22;3136;48.788;9.772;2023-07-31T10:46:09;23.30;99.90
6206;DHT22;3136;48.788;9.772;2023-07-31T10:48:39;23.10;99.90
6206;DHT22;3136;48.788;9.772;2023-07-31T10:51:10;23.00;99.90
6206;DHT22;3136;48.788;9.772;2023-07-31T10:53:38;22.90;99.90
6206;DHT22;3136;48.788;9.772;2023-07-31T10:56:08;22.90;99.90
6206;DHT22;3136;48.788;9.772;2023-07-31T10:58:34;23.00;99.90
6206;DHT22;3136;48.788;9.772;2023-07-31T11:01:02;22.90;99.90
6206;DHT22;3136;48.788;9.772;2023-07-31T11:06:08;24.10;99.90
6206;DHT22;3136;48.788;9.772;2023-07-31T11:08:35;24.40;99.90
6206;DHT22;3136;48.788;9.772;2023-07-31T11:13:34;25.10;99.90
6206;DHT22;3136;48.788;9.772;2023-07-31T11:16:04;25.40;99.90
6206;DHT22;3136;48.788;9.772;2023-07-31T11:18:30;25.30;99.90
6206;DHT22;3136;48.788;9.772;2023-07-31T11:20:55;25.40;99.90
6206;DHT22;3136;48.788;9.772;2023-07-31T11:23:22;25.50;99.90
6206;DHT22;3136;48.788;9.772;2023-07-31T11:25:47;25.80;99.90
6206;DHT22;3136;48.788;9.772;2023-07-31T11:28:15;26.00;99.90
6206;DHT22;3136;48.788;9.772;2023-07-31T11:30:42;26.10;99.90
6206;DHT22;3136;48.788;9.772;2023-07-31T11:33:09;25.70;99.90
6206;DHT22;3136;48.788;9.772;2023-07-31T11:35:41;25.30;99.90
6206;DHT22;3136;48.788;9.772;2023-07-31T11:38:07;24.90;99.90
6206;DHT22;3136;48.788;9.772;2023-07-31T11:40:43;24.60;99.90
6206;DHT22;3136;48.788;9.772;2023-07-31T11:43:09;24.30;99.90
6206;DHT22;3136;48.788;9.772;2023-07-31T11:45:35;23.90;99.90
6206;DHT22;3136;48.788;9.772;2023-07-31T11:48:01;23.70;99.90
6206;DHT22;3136;48.788;9.772;2023-07-31T11:50:27;23.80;99.90
6206;DHT22;3136;48.788;9.772;2023-07-31T11:53:07;24.30;99.90
6206;DHT22;3136;48.788;9.772;2023-07-31T11:55:34;25.20;99.90
6206;DHT22;3136;48.788;9.772;2023-07-31T11:58:00;25.90;99.90
6206;DHT22;3136;48.788;9.772;2023-07-31T12:00:26;26.60;99.90
6206;DHT22;3136;48.788;9.772;2023-07-31T12:02:53;26.70;99.90
6206;DHT22;3136;48.788;9.772;2023-07-31T12:05:18;27.00;99.90
6206;DHT22;3136;48.788;9.772;2023-07-31T12:07:52;26.80;99.90
6206;DHT22;3136;48.788;9.772;2023-07-31T12:10:32;27.20;99.90
6206;DHT22;3136;48.788;9.772;2023-07-31T12:13:03;27.80;99.90
6206;DHT22;3136;48.788;9.772;2023-07-31T12:15:35;28.00;99.90
6206;DHT22;3136;48.788;9.772;2023-07-31T12:18:05;27.50;99.90
6206;DHT22;3136;48.788;9.772;2023-07-31T12:20:32;27.00;99.90
6206;DHT22;3136;48.788;9.772;2023-07-31T12:22:57;26.40;99.90
6206;DHT22;3136;48.788;9.772;2023-07-31T12:25:29;25.50;99.90
6206;DHT22;3136;48.788;9.772;2023-07-31T12:27:54;24.80;99.90
6206;DHT22;3136;48.788;9.772;2023-07-31T12:30:31;24.40;99.90
6206;DHT22;3136;48.788;9.772;2023-07-31T12:32:57;24.00;99.90
6206;DHT22;3136;48.788;9.772;2023-07-31T12:35:23;23.80;99.90
6206;DHT22;3136;48.788;9.772;2023-07-31T12:37:48;23.80;99.90
6206;DHT22;3136;48.788;9.772;2023-07-31T12:40:14;23.70;99.90
6206;DHT22;3136;48.788;9.772;2023-07-31T12:42:41;23.60;99.90
6206;DHT22;3136;48.788;9.772;2023-07-31T12:45:07;23.50;99.90
6206;DHT22;3136;48.788;9.772;2023-07-31T12:47:33;23.30;99.90
6206;DHT22;3136;48.788;9.772;2023-07-31T12:49:58;23.20;99.90
6206;DHT22;3136;48.788;9.772;2023-07-31T12:52:24;23.00;99.90
6206;DHT22;3136;48.788;9.772;2023-07-31T12:54:49;22.90;99.90
6206;DHT22;3136;48.788;9.772;2023-07-31T12:57:15;23.00;99.90
6206;DHT22;3136;48.788;9.772;2023-07-31T12:59:40;23.00;99.90
6206;DHT22;3136;48.788;9.772;2023-07-31T13:02:07;23.10;99.90
6206;DHT22;3136;48.788;9.772;2023-07-31T13:04:32;23.20;99.90
6206;DHT22;3136;48.788;9.772;2023-07-31T13:06:58;23.30;99.90
6206;DHT22;3136;48.788;9.772;2023-07-31T13:09:23;23.40;99.90
6206;DHT22;3136;48.788;9.772;2023-07-31T13:11:49;23.40;99.90
6206;DHT22;3136;48.788;9.772;2023-07-31T13:14:14;23.40;99.90
6206;DHT22;3136;48.788;9.772;2023-07-31T13:16:40;23.50;99.90
6206;DHT22;3136;48.788;9.772;2023-07-31T13:19:06;23.60;99.90
6206;DHT22;3136;48.788;9.772;2023-07-31T13:21:31;23.80;99.90
6206;DHT22;3136;48.788;9.772;2023-07-31T13:23:57;23.80;99.90
6206;DHT22;3136;48.788;9.772;2023-07-31T13:26:24;23.80;99.90
6206;DHT22;3136;48.788;9.772;2023-07-31T13:28:50;23.60;99.90
6206;DHT22;3136;48.788;9.772;2023-07-31T13:31:15;23.40;99.90
6206;DHT22;3136;48.788;9.772;2023-07-31T13:33:41;23.20;99.90
6206;DHT22;3136;48.788;9.772;2023-07-31T13:36:06;23.00;99.90
6206;DHT22;3136;48.788;9.772;2023-07-31T13:38:32;23.00;99.90
6206;DHT22;3136;48.788;9.772;2023-07-31T13:40:57;22.90;99.90
6206;DHT22;3136;48.788;9.772;2023-07-31T13:43:24;22.80;99.90
6206;DHT22;3136;48.788;9.772;2023-07-31T13:45:49;22.70;99.90
6206;DHT22;3136;48.788;9.772;2023-07-31T13:48:15;22.70;99.90
6206;DHT22;3136;48.788;9.772;2023-07-31T13:50:41;22.70;99.90
6206;DHT22;3136;48.788;9.772;2023-07-31T13:53:06;22.80;99.90
6206;DHT22;3136;48.788;9.772;2023-07-31T13:55:32;22.80;99.90
6206;DHT22;3136;48.788;9.772;2023-07-31T13:57:57;22.70;99.90
6206;DHT22;3136;48.788;9.772;2023-07-31T14:00:23;22.60;99.90
6206;DHT22;3136;48.788;9.772;2023-07-31T14:02:48;22.60;99.90
6206;DHT22;3136;48.788;9.772;2023-07-31T14:05:14;22.40;99.90
6206;DHT22;3136;48.788;9.772;2023-07-31T14:07:40;22.40;99.90
6206;DHT22;3136;48.788;9.772;2023-07-31T14:10:05;22.40;99.90
6206;DHT22;3136;48.788;9.772;2023-07-31T14:12:31;22.30;99.90
6206;DHT22;3136;48.788;9.772;2023-07-31T14:14:57;22.20;99.90
6206;DHT22;3136;48.788;9.772;2023-07-31T14:17:22;22.30;99.90
6206;DHT22;3136;48.788;9.772;2023-07-31T14:19:48;22.40;99.90
6206;DHT22;3136;48.788;9.772;2023-07-31T14:22:13;22.40;99.90
6206;DHT22;3136;48.788;9.772;2023-07-31T14:24:39;22.30;99.90
6206;DHT22;3136;48.788;9.772;2023-07-31T14:27:05;22.20;99.90
6206;DHT22;3136;48.788;9.772;2023-07-31T14:29:30;22.10;99.90
6206;DHT22;3136;48.788;9.772;2023-07-31T14:31:56;22.10;99.90
6206;DHT22;3136;48.788;9.772;2023-07-31T14:34:22;22.10;99.90
6206;DHT22;3136;48.788;9.772;2023-07-31T14:36:47;22.20;99.90
6206;DHT22;3136;48.788;9.772;2023-07-31T14:39:13;22.10;99.90
6206;DHT22;3136;48.788;9.772;2023-07-31T14:41:38;22.30;99.90
6206;DHT22;3136;48.788;9.772;2023-07-31T14:44:04;22.40;99.90
6206;DHT22;3136;48.788;9.772;2023-07-31T14:46:30;22.60;99.90
6206;DHT22;3136;48.788;9.772;2023-07-31T14:48:55;22.70;99.90
6206;DHT22;3136;48.788;9.772;2023-07-31T14:51:21;22.70;99.90
6206;DHT22;3136;48.788;9.772;2023-07-31T14:53:46;22.80;99.90
6206;DHT22;3136;48.788;9.772;2023-07-31T14:56:12;22.90;99.90
6206;DHT22;3136;48.788;9.772;2023-07-31T14:58:38;22.90;99.90
6206;DHT22;3136;48.788;9.772;2023-07-31T15:01:03;23.00;99.90
6206;DHT22;3136;48.788;9.772;2023-07-31T15:03:29;23.00;99.90
6206;DHT22;3136;48.788;9.772;2023-07-31T15:05:54;23.00;99.90
6206;DHT22;3136;48.788;9.772;2023-07-31T15:08:20;23.00;99.90
6206;DHT22;3136;48.788;9.772;2023-07-31T15:10:46;23.00;99.90
6206;DHT22;3136;48.788;9.772;2023-07-31T15:13:11;23.10;99.90
6206;DHT22;3136;48.788;9.772;2023-07-31T15:15:37;23.10;99.90
6206;DHT22;3136;48.788;9.772;2023-07-31T15:18:02;23.00;99.90
6206;DHT22;3136;48.788;9.772;2023-07-31T15:20:28;23.00;99.90
6206;DHT22;3136;48.788;9.772;2023-07-31T15:22:54;23.10;99.90
6206;DHT22;3136;48.788;9.772;2023-07-31T15:25:20;23.10;99.90
6206;DHT22;3136;48.788;9.772;2023-07-31T15:27:45;23.20;99.90
6206;DHT22;3136;48.788;9.772;2023-07-31T15:30:11;23.20;99.90
6206;DHT22;3136;48.788;9.772;2023-07-31T15:32:37;23.10;99.90
6206;DHT22;3136;48.788;9.772;2023-07-31T15:35:05;23.00;99.90
6206;DHT22;3136;48.788;9.772;2023-07-31T15:37:30;22.80;99.90
6206;DHT22;3136;48.788;9.772;2023-07-31T15:39:56;22.80;99.90
6206;DHT22;3136;48.788;9.772;2023-07-31T15:42:21;22.60;99.90
6206;DHT22;3136;48.788;9.772;2023-07-31T15:44:47;22.10;99.90
6206;DHT22;3136;48.788;9.772;2023-07-31T15:47:12;22.70;99.90
6206;DHT22;3136;48.788;9.772;2023-07-31T15:49:38;22.70;99.90
6206;DHT22;3136;48.788;9.772;2023-07-31T15:52:04;22.80;99.90
6206;DHT22;3136;48.788;9.772;2023-07-31T15:54:30;22.90;99.90
6206;DHT22;3136;48.788;9.772;2023-07-31T15:56:55;23.00;99.90
6206;DHT22;3136;48.788;9.772;2023-07-31T15:59:21;23.10;99.90
6206;DHT22;3136;48.788;9.772;2023-07-31T16:01:46;23.20;99.90
6206;DHT22;3136;48.788;9.772;2023-07-31T16:04:12;23.10;99.90
6206;DHT22;3136;48.788;9.772;2023-07-31T16:06:37;23.30;99.90
6206;DHT22;3136;48.788;9.772;2023-07-31T16:09:03;23.10;99.90
6206;DHT22;3136;48.788;9.772;2023-07-31T16:11:29;23.00;99.90
6206;DHT22;3136;48.788;9.772;2023-07-31T16:13:54;22.90;99.90
6206;DHT22;3136;48.788;9.772;2023-07-31T16:16:20;23.00;99.90